Nearby METAR Reports

 

EIDW - Dublin Airport, Ireland
Distance from station: ENE 79km
Updated: 28/01/2020 19:00
Few Clouds
Few Clouds
 Wind from WSW
Wind: WSW 24 km/h
Temperature: 3°C
Wind Chill: -2°C
Dew Point: 1°C
Humidity: 87%
Barometer: 998 hPa
Clouds: Few Clouds
Visibility: 10 km
Cloud details: Few Clouds 457 m
2020/01/28 19:00 EIDW 281900Z 25013KT 220V290 9999 FEW015 03/01 Q0998 NOSIG
EIME - Casement (mil), Ireland
Distance from station: ENE 62km
Updated: 28/01/2020 19:00
Few Clouds
Few Clouds
 Wind from WSW
Wind: WSW 31 km/h
Temperature: 3°C
Wind Chill: -3°C
Dew Point: 1°C
Humidity: 87%
Barometer: 998 hPa
Clouds: Few Clouds
Visibility: 10 km
Cloud details: Few Clouds 549 m
2020/01/28 19:00 EIME 281900Z 24017KT 9999 FEW018 03/01 Q0998
EIWF - Waterford Arpt, Ireland
Distance from station: S 111km
Updated: 28/01/2020 19:00
Clear
Clear
 Wind from W
Wind: W 11 km/h
Temperature: 3°C
Wind Chill: 0°C
Dew Point: 0°C
Humidity: 81%
Barometer: 1002 hPa
Summary: Clear
Visibility: greater than 10 km
2020/01/28 19:00 EIWF 281900Z 26006KT 230V310 CAVOK 03/00 Q1002
 
EINN - Shannon Airport, Ireland
Distance from station: WSW 117km
Updated: 28/01/2020 19:00
Few Clouds
Few Clouds
 Wind from W
Wind: W 24 km/h
Temperature: 4°C
Wind Chill: -1°C
Dew Point: 2°C
Humidity: 87%
Barometer: 1002 hPa
Clouds: Few Clouds
Visibility: 10 km
Cloud details: Few Clouds 549 m
2020/01/28 19:00 EINN 281900Z 26013KT 9999 FEW018CB 04/02 Q1002 NOSIG
EIKN - Connaught Apt, Ireland
Distance from station: NW 127km
Updated: 28/01/2020 19:00
Light rain, Showers, Snow, Mostly cloudy
Light rain, Showers, Snow, Mostly cloudy
 Wind from W
Wind: W 37 km/h
Temperature: 2°C
Wind Chill: -4°C
Dew Point: 1°C
Humidity: 93%
Barometer: 998 hPa
Summary: Light rain, Showers, Snow
Clouds: Mostly cloudy
Visibility: 10 km
Cloud details: Partly cloudy 579 m
Partly cloudy 732 m
Mostly cloudy 975 m
2020/01/28 19:00 EIKN 281900Z 26020KT 9999 -SHRASN SCT019CB SCT024 BKN032 02/01 Q0998 NOSIG
EISG - Sligo Arpt, Ireland
Distance from station: NNW 148km
Updated: 28/01/2020 17:30
NOT Current
Partly cloudy
Partly cloudy
 Wind from WSW
Wind: WSW 28 km/h
Temperature: 3°C
Wind Chill: -3°C
Dew Point: 3°C
Humidity: 100%
Barometer: 995 hPa
Clouds: Partly cloudy
Visibility: 9 km
Cloud details: Few Clouds 579 m
Partly cloudy 762 m
Partly cloudy 1524 m
2020/01/28 17:30 EISG 281730Z 25015KT 9000 FEW019 SCT025 SCT050 03/03 Q0995
 
EICK - Cork Arpt/Corcai, Ireland
Distance from station: SSW 165km
Updated: 28/01/2020 19:00
Few Clouds
Few Clouds
 Wind from SW
Wind: SW 11 km/h
Temperature: 2°C
Wind Chill: -1°C
Dew Point: -1°C
Humidity: 81%
Barometer: 1003 hPa
Clouds: Few Clouds
Visibility: 10 km
Cloud details: Few Clouds 549 m
2020/01/28 19:00 EICK 281900Z 23006KT 9999 FEW018CB 02/M01 Q1003 NOSIG
EGAA - Belfast/Aldergro, United Kingdom
Distance from station: NNE 179km
Updated: 28/01/2020 18:50
Mostly cloudy
Mostly cloudy
 Wind from SW
Wind: SW 28 km/h
Temperature: 3°C
Wind Chill: -3°C
Dew Point: 2°C
Humidity: 93%
Barometer: 994 hPa
Clouds: Mostly cloudy
Visibility: 10 km
Cloud details: Few Clouds 335 m
Partly cloudy 457 m
Mostly cloudy 884 m
2020/01/28 18:50 EGAA 281850Z 23015KT 9999 FEW011 SCT015 BKN029 03/02 Q0994
EIKY - Kerry Arpt, Ireland
Distance from station: SW 182km
Updated: 28/01/2020 19:00
Rain, Overcast
Rain, Overcast
 Wind from WNW
Wind: WNW 17 km/h
Temperature: 4°C
Wind Chill: 0°C
Dew Point: 2°C
Humidity: 87%
Barometer: 1003 hPa
Summary: Rain
Clouds: Overcast
Visibility: 10 km
Cloud details: Few Clouds 488 m
Overcast 1067 m
2020/01/28 19:00 EIKY 281900Z 29009KT 250V330 9999 RA FEW016 OVC035 04/02 Q1003
 
EGAC - Belfast Harbour, United Kingdom
Distance from station: NNE 188km
Updated: 28/01/2020 18:50
Mostly cloudy
Mostly cloudy
 Wind from SW
Wind: SW 17 km/h
Temperature: 4°C
Wind Chill: 0°C
Dew Point: 2°C
Humidity: 87%
Barometer: 994 hPa
Clouds: Mostly cloudy
Visibility: 10 km
Cloud details: Mostly cloudy 457 m
2020/01/28 18:50 EGAC 281850Z AUTO 23009KT 200V260 9999 BKN015/// 04/02 Q0994
EGOV - Valley Raf, United Kingdom
Distance from station: E 188km
Updated: 28/01/2020 18:50
Partly cloudy
Partly cloudy
 Wind from W
Wind: W 37 km/h
Temperature: 6°C
Wind Chill: 1°C
Dew Point: 1°C
Humidity: 71%
Barometer: 998 hPa
Clouds: Partly cloudy
Visibility: 10 km
Cloud details: Partly cloudy 792 m
2020/01/28 18:50 EGOV 281850Z 26020KT 9999 SCT026 06/01 Q0998 RMK BLU
EGNS - Isle Of Man/Rona, United Kingdom
Distance from station: ENE 207km
Updated: 28/01/2020 18:50
Partly cloudy
Partly cloudy
 Wind from W
Wind: W 35 km/h, Gust: 54 km/h
Temperature: 6°C
Wind Chill: 1°C
Dew Point: 1°C
Humidity: 71%
Barometer: 995 hPa
Clouds: Partly cloudy
Visibility: 10 km
Cloud details: Partly cloudy 610 m
2020/01/28 18:50 EGNS 281850Z 27019G29KT 230V310 9999 SCT020 06/01 Q0995 NOSIG